sensor_id;sensor_type;location;lat;lon;timestamp;pressure;altitude;pressure_sealevel;temperature;humidity
55490;BME280;44029;52.956;4.772;2023-12-07T00:01:05;102002.97;;;9.41;100.00
55490;BME280;44029;52.956;4.772;2023-12-07T00:03:31;102002.94;;;9.61;100.00
55490;BME280;44029;52.956;4.772;2023-12-07T00:05:56;102016.03;;;9.46;100.00
55490;BME280;44029;52.956;4.772;2023-12-07T00:08:22;102003.19;;;9.46;100.00
55490;BME280;44029;52.956;4.772;2023-12-07T00:10:47;102006.38;;;9.95;100.00
55490;BME280;44029;52.956;4.772;2023-12-07T00:13:12;102005.22;;;10.16;100.00
55490;BME280;44029;52.956;4.772;2023-12-07T00:15:38;101999.13;;;10.53;100.00
55490;BME280;44029;52.956;4.772;2023-12-07T00:18:03;101994.03;;;10.56;100.00
55490;BME280;44029;52.956;4.772;2023-12-07T00:20:29;101999.09;;;10.59;100.00
55490;BME280;44029;52.956;4.772;2023-12-07T00:22:55;101997.78;;;10.62;100.00
55490;BME280;44029;52.956;4.772;2023-12-07T00:25:21;102001.00;;;10.14;100.00
55490;BME280;44029;52.956;4.772;2023-12-07T00:27:47;101989.09;;;10.72;100.00
55490;BME280;44029;52.956;4.772;2023-12-07T00:30:13;101991.94;;;10.83;100.00
55490;BME280;44029;52.956;4.772;2023-12-07T00:32:38;101997.59;;;10.32;100.00
55490;BME280;44029;52.956;4.772;2023-12-07T00:35:04;101998.81;;;10.36;100.00
55490;BME280;44029;52.956;4.772;2023-12-07T00:37:29;102012.34;;;10.24;100.00
55490;BME280;44029;52.956;4.772;2023-12-07T00:39:56;102004.34;;;10.61;100.00
55490;BME280;44029;52.956;4.772;2023-12-07T00:42:21;102005.19;;;10.61;100.00
55490;BME280;44029;52.956;4.772;2023-12-07T00:44:46;102000.22;;;10.45;100.00
55490;BME280;44029;52.956;4.772;2023-12-07T00:47:12;102001.94;;;10.46;100.00
55490;BME280;44029;52.956;4.772;2023-12-07T00:49:38;101999.47;;;10.88;100.00
55490;BME280;44029;52.956;4.772;2023-12-07T00:52:05;102001.09;;;10.71;100.00
55490;BME280;44029;52.956;4.772;2023-12-07T00:54:31;101997.19;;;10.60;100.00
55490;BME280;44029;52.956;4.772;2023-12-07T00:56:56;102001.75;;;10.41;100.00
55490;BME280;44029;52.956;4.772;2023-12-07T00:59:23;102005.06;;;10.04;100.00
55490;BME280;44029;52.956;4.772;2023-12-07T01:01:48;102009.44;;;10.12;100.00
55490;BME280;44029;52.956;4.772;2023-12-07T01:04:13;102011.47;;;10.30;100.00
55490;BME280;44029;52.956;4.772;2023-12-07T01:06:39;102010.34;;;10.44;100.00
55490;BME280;44029;52.956;4.772;2023-12-07T01:09:04;102007.63;;;10.44;100.00
55490;BME280;44029;52.956;4.772;2023-12-07T01:11:29;102003.56;;;10.54;100.00
55490;BME280;44029;52.956;4.772;2023-12-07T01:13:55;101999.41;;;10.70;100.00
55490;BME280;44029;52.956;4.772;2023-12-07T01:16:20;102004.28;;;10.68;100.00
55490;BME280;44029;52.956;4.772;2023-12-07T01:18:46;102004.56;;;10.59;100.00
55490;BME280;44029;52.956;4.772;2023-12-07T01:21:11;102005.78;;;10.63;100.00
55490;BME280;44029;52.956;4.772;2023-12-07T01:23:37;102005.22;;;10.16;100.00
55490;BME280;44029;52.956;4.772;2023-12-07T01:26:03;102018.78;;;9.26;100.00
55490;BME280;44029;52.956;4.772;2023-12-07T01:28:28;102020.44;;;9.47;100.00
55490;BME280;44029;52.956;4.772;2023-12-07T01:30:54;102008.56;;;9.73;100.00
55490;BME280;44029;52.956;4.772;2023-12-07T01:33:20;102014.00;;;9.86;100.00
55490;BME280;44029;52.956;4.772;2023-12-07T01:35:45;102017.66;;;9.60;100.00
55490;BME280;44029;52.956;4.772;2023-12-07T01:38:11;102009.38;;;9.80;100.00
55490;BME280;44029;52.956;4.772;2023-12-07T01:40:36;102007.00;;;9.97;100.00
55490;BME280;44029;52.956;4.772;2023-12-07T01:43:01;102015.09;;;9.72;100.00
55490;BME280;44029;52.956;4.772;2023-12-07T01:45:27;102026.25;;;9.77;100.00
55490;BME280;44029;52.956;4.772;2023-12-07T01:47:54;102019.38;;;10.06;100.00
55490;BME280;44029;52.956;4.772;2023-12-07T01:50:21;102016.09;;;9.84;100.00
55490;BME280;44029;52.956;4.772;2023-12-07T01:52:51;102025.13;;;9.92;100.00
55490;BME280;44029;52.956;4.772;2023-12-07T01:55:17;102017.59;;;9.80;100.00
55490;BME280;44029;52.956;4.772;2023-12-07T01:57:44;102016.47;;;10.01;100.00
55490;BME280;44029;52.956;4.772;2023-12-07T02:00:11;102007.47;;;9.87;100.00
55490;BME280;44029;52.956;4.772;2023-12-07T02:02:37;102002.03;;;9.81;100.00
55490;BME280;44029;52.956;4.772;2023-12-07T02:05:03;102006.91;;;9.72;100.00
55490;BME280;44029;52.956;4.772;2023-12-07T02:07:30;102008.00;;;9.51;100.00
55490;BME280;44029;52.956;4.772;2023-12-07T02:09:57;102009.84;;;9.64;100.00
55490;BME280;44029;52.956;4.772;2023-12-07T02:12:23;102001.91;;;9.56;100.00
55490;BME280;44029;52.956;4.772;2023-12-07T02:14:49;101998.50;;;9.60;100.00
55490;BME280;44029;52.956;4.772;2023-12-07T02:17:23;101998.75;;;10.04;100.00
55490;BME280;44029;52.956;4.772;2023-12-07T02:22:25;102000.69;;;9.97;100.00
55490;BME280;44029;52.956;4.772;2023-12-07T02:25:13;102007.34;;;10.14;100.00
55490;BME280;44029;52.956;4.772;2023-12-07T02:27:42;101996.44;;;10.07;100.00
55490;BME280;44029;52.956;4.772;2023-12-07T02:30:10;101995.06;;;9.78;100.00
55490;BME280;44029;52.956;4.772;2023-12-07T02:32:40;101996.97;;;9.78;100.00
55490;BME280;44029;52.956;4.772;2023-12-07T02:35:08;102000.19;;;9.68;100.00
55490;BME280;44029;52.956;4.772;2023-12-07T02:37:43;102004.72;;;9.87;100.00
55490;BME280;44029;52.956;4.772;2023-12-07T02:40:10;101999.28;;;9.81;100.00
55490;BME280;44029;52.956;4.772;2023-12-07T02:42:37;102004.28;;;9.91;100.00
55490;BME280;44029;52.956;4.772;2023-12-07T02:45:04;102008.19;;;9.63;100.00
55490;BME280;44029;52.956;4.772;2023-12-07T02:47:30;101998.06;;;9.63;100.00
55490;BME280;44029;52.956;4.772;2023-12-07T02:49:55;101995.75;;;9.60;100.00
55490;BME280;44029;52.956;4.772;2023-12-07T02:52:20;101997.44;;;9.68;100.00
55490;BME280;44029;52.956;4.772;2023-12-07T02:54:46;101999.25;;;9.87;100.00
55490;BME280;44029;52.956;4.772;2023-12-07T02:57:11;102001.97;;;9.87;100.00
55490;BME280;44029;52.956;4.772;2023-12-07T02:59:37;102009.16;;;9.82;100.00
55490;BME280;44029;52.956;4.772;2023-12-07T03:02:03;102006.22;;;9.77;100.00
55490;BME280;44029;52.956;4.772;2023-12-07T03:04:28;102018.47;;;9.74;100.00
55490;BME280;44029;52.956;4.772;2023-12-07T03:06:53;102016.41;;;9.56;100.00
55490;BME280;44029;52.956;4.772;2023-12-07T03:09:19;102008.97;;;9.77;100.00
55490;BME280;44029;52.956;4.772;2023-12-07T03:11:44;102002.50;;;9.64;100.00
55490;BME280;44029;52.956;4.772;2023-12-07T03:14:09;102014.97;;;9.40;100.00
55490;BME280;44029;52.956;4.772;2023-12-07T03:16:35;102014.19;;;9.00;100.00
55490;BME280;44029;52.956;4.772;2023-12-07T03:19:01;102018.75;;;9.33;100.00
55490;BME280;44029;52.956;4.772;2023-12-07T03:21:26;102015.63;;;9.22;100.00
55490;BME280;44029;52.956;4.772;2023-12-07T03:23:52;102015.19;;;9.32;100.00
55490;BME280;44029;52.956;4.772;2023-12-07T03:26:17;102013.75;;;9.29;100.00
55490;BME280;44029;52.956;4.772;2023-12-07T03:28:42;102007.88;;;9.13;100.00
55490;BME280;44029;52.956;4.772;2023-12-07T03:31:08;102008.47;;;9.28;100.00
55490;BME280;44029;52.956;4.772;2023-12-07T03:33:33;102012.50;;;9.25;100.00
55490;BME280;44029;52.956;4.772;2023-12-07T03:35:58;102009.75;;;9.25;100.00
55490;BME280;44029;52.956;4.772;2023-12-07T03:38:24;102001.13;;;9.15;100.00
55490;BME280;44029;52.956;4.772;2023-12-07T03:40:49;102005.78;;;9.15;100.00
55490;BME280;44029;52.956;4.772;2023-12-07T03:43:15;102009.53;;;9.20;100.00
55490;BME280;44029;52.956;4.772;2023-12-07T03:45:41;102006.81;;;9.14;100.00
55490;BME280;44029;52.956;4.772;2023-12-07T03:48:06;102010.38;;;9.21;100.00
55490;BME280;44029;52.956;4.772;2023-12-07T03:50:31;102007.84;;;9.19;100.00
55490;BME280;44029;52.956;4.772;2023-12-07T03:52:57;102002.78;;;9.23;100.00
55490;BME280;44029;52.956;4.772;2023-12-07T03:55:22;102005.38;;;8.98;100.00
55490;BME280;44029;52.956;4.772;2023-12-07T03:57:47;102001.75;;;8.97;100.00
55490;BME280;44029;52.956;4.772;2023-12-07T04:00:13;102002.63;;;8.91;100.00
55490;BME280;44029;52.956;4.772;2023-12-07T04:02:38;101992.47;;;9.25;100.00
55490;BME280;44029;52.956;4.772;2023-12-07T04:05:04;101988.13;;;8.84;100.00
55490;BME280;44029;52.956;4.772;2023-12-07T04:07:29;101985.38;;;8.84;100.00
55490;BME280;44029;52.956;4.772;2023-12-07T04:09:55;101987.88;;;9.12;100.00
55490;BME280;44029;52.956;4.772;2023-12-07T04:12:22;101987.03;;;9.05;100.00
55490;BME280;44029;52.956;4.772;2023-12-07T04:14:48;101981.16;;;8.88;100.00
55490;BME280;44029;52.956;4.772;2023-12-07T04:17:13;101975.94;;;8.80;100.00
55490;BME280;44029;52.956;4.772;2023-12-07T04:19:39;101983.28;;;8.86;100.00
55490;BME280;44029;52.956;4.772;2023-12-07T04:22:04;101974.03;;;8.87;100.00
55490;BME280;44029;52.956;4.772;2023-12-07T04:24:29;101980.63;;;8.04;100.00
55490;BME280;44029;52.956;4.772;2023-12-07T04:26:54;101984.19;;;7.98;100.00
55490;BME280;44029;52.956;4.772;2023-12-07T04:29:20;101992.41;;;7.63;100.00
55490;BME280;44029;52.956;4.772;2023-12-07T04:31:45;101996.28;;;7.82;100.00
55490;BME280;44029;52.956;4.772;2023-12-07T04:34:10;101994.28;;;8.11;100.00
55490;BME280;44029;52.956;4.772;2023-12-07T04:36:36;101991.16;;;8.21;100.00
55490;BME280;44029;52.956;4.772;2023-12-07T04:39:01;101991.06;;;8.56;100.00
55490;BME280;44029;52.956;4.772;2023-12-07T04:41:26;101986.69;;;8.06;100.00
55490;BME280;44029;52.956;4.772;2023-12-07T04:43:52;101994.09;;;8.19;100.00
55490;BME280;44029;52.956;4.772;2023-12-07T04:46:17;101985.06;;;8.25;100.00
55490;BME280;44029;52.956;4.772;2023-12-07T04:48:42;101989.25;;;8.21;100.00
55490;BME280;44029;52.956;4.772;2023-12-07T04:51:08;101982.97;;;8.21;100.00
55490;BME280;44029;52.956;4.772;2023-12-07T04:53:33;101991.25;;;7.79;100.00
55490;BME280;44029;52.956;4.772;2023-12-07T04:55:59;101992.22;;;8.26;100.00
55490;BME280;44029;52.956;4.772;2023-12-07T04:58:25;101990.16;;;8.35;100.00
55490;BME280;44029;52.956;4.772;2023-12-07T05:00:50;101996.72;;;8.54;100.00
55490;BME280;44029;52.956;4.772;2023-12-07T05:03:15;101993.66;;;8.09;100.00
55490;BME280;44029;52.956;4.772;2023-12-07T05:05:40;101995.63;;;8.42;100.00
55490;BME280;44029;52.956;4.772;2023-12-07T05:08:06;101994.75;;;8.35;100.00
55490;BME280;44029;52.956;4.772;2023-12-07T05:10:31;101987.16;;;8.17;100.00
55490;BME280;44029;52.956;4.772;2023-12-07T05:12:57;101981.91;;;8.15;100.00
55490;BME280;44029;52.956;4.772;2023-12-07T05:15:22;101988.47;;;8.27;100.00
55490;BME280;44029;52.956;4.772;2023-12-07T05:17:48;101978.88;;;8.51;100.00
55490;BME280;44029;52.956;4.772;2023-12-07T05:20:13;101986.84;;;8.46;100.00
55490;BME280;44029;52.956;4.772;2023-12-07T05:22:38;101977.38;;;8.49;100.00
55490;BME280;44029;52.956;4.772;2023-12-07T05:25:04;101978.25;;;7.81;100.00
55490;BME280;44029;52.956;4.772;2023-12-07T05:27:30;101984.03;;;6.95;100.00
55490;BME280;44029;52.956;4.772;2023-12-07T05:29:55;101989.53;;;7.02;100.00
55490;BME280;44029;52.956;4.772;2023-12-07T05:32:21;101981.72;;;8.30;100.00
55490;BME280;44029;52.956;4.772;2023-12-07T05:34:46;101980.69;;;8.31;100.00
55490;BME280;44029;52.956;4.772;2023-12-07T05:37:12;101982.19;;;8.40;100.00
55490;BME280;44029;52.956;4.772;2023-12-07T05:39:37;101979.56;;;7.99;100.00
55490;BME280;44029;52.956;4.772;2023-12-07T05:42:03;101973.28;;;8.11;100.00
55490;BME280;44029;52.956;4.772;2023-12-07T05:44:29;101973.13;;;8.26;100.00
55490;BME280;44029;52.956;4.772;2023-12-07T05:46:55;101963.53;;;8.50;100.00
55490;BME280;44029;52.956;4.772;2023-12-07T05:49:23;101972.19;;;7.99;100.00
55490;BME280;44029;52.956;4.772;2023-12-07T05:51:48;101972.84;;;8.08;100.00
55490;BME280;44029;52.956;4.772;2023-12-07T05:54:14;101978.16;;;8.36;100.00
55490;BME280;44029;52.956;4.772;2023-12-07T05:56:40;101979.06;;;8.43;100.00
55490;BME280;44029;52.956;4.772;2023-12-07T05:59:06;101971.72;;;8.50;100.00
55490;BME280;44029;52.956;4.772;2023-12-07T06:01:31;101964.94;;;8.40;100.00
55490;BME280;44029;52.956;4.772;2023-12-07T06:03:57;101982.13;;;8.20;100.00
55490;BME280;44029;52.956;4.772;2023-12-07T06:06:23;101976.72;;;8.40;100.00
55490;BME280;44029;52.956;4.772;2023-12-07T06:08:48;101977.66;;;7.99;100.00
55490;BME280;44029;52.956;4.772;2023-12-07T06:11:14;101976.06;;;8.18;100.00
55490;BME280;44029;52.956;4.772;2023-12-07T06:13:39;101980.84;;;8.09;100.00
55490;BME280;44029;52.956;4.772;2023-12-07T06:16:04;101981.75;;;8.37;100.00
55490;BME280;44029;52.956;4.772;2023-12-07T06:18:30;101976.59;;;7.93;100.00
55490;BME280;44029;52.956;4.772;2023-12-07T06:20:55;101989.13;;;7.74;100.00
55490;BME280;44029;52.956;4.772;2023-12-07T06:23:21;101985.88;;;8.06;100.00
55490;BME280;44029;52.956;4.772;2023-12-07T06:25:46;101995.66;;;7.39;100.00
55490;BME280;44029;52.956;4.772;2023-12-07T06:28:12;101998.00;;;7.48;100.00
55490;BME280;44029;52.956;4.772;2023-12-07T06:30:38;101999.00;;;7.82;100.00
55490;BME280;44029;52.956;4.772;2023-12-07T06:33:03;101988.56;;;7.92;100.00
55490;BME280;44029;52.956;4.772;2023-12-07T06:35:29;101991.97;;;8.08;100.00
55490;BME280;44029;52.956;4.772;2023-12-07T06:37:55;101993.94;;;8.41;100.00
55490;BME280;44029;52.956;4.772;2023-12-07T06:40:21;101990.31;;;8.27;100.00
55490;BME280;44029;52.956;4.772;2023-12-07T06:42:46;101975.72;;;7.86;100.00
55490;BME280;44029;52.956;4.772;2023-12-07T06:45:11;101983.50;;;7.89;100.00
55490;BME280;44029;52.956;4.772;2023-12-07T06:47:40;101987.34;;;8.08;100.00
55490;BME280;44029;52.956;4.772;2023-12-07T06:50:07;101986.63;;;7.86;100.00
55490;BME280;44029;52.956;4.772;2023-12-07T06:52:36;101986.16;;;7.69;100.00
55490;BME280;44029;52.956;4.772;2023-12-07T06:55:02;101982.81;;;7.74;100.00
55490;BME280;44029;52.956;4.772;2023-12-07T06:57:28;101980.97;;;7.40;100.00
55490;BME280;44029;52.956;4.772;2023-12-07T06:59:53;101977.97;;;7.69;100.00
55490;BME280;44029;52.956;4.772;2023-12-07T07:02:18;101975.72;;;7.38;100.00
55490;BME280;44029;52.956;4.772;2023-12-07T07:04:44;101970.34;;;7.51;100.00
55490;BME280;44029;52.956;4.772;2023-12-07T07:07:09;101963.56;;;7.41;100.00
55490;BME280;44029;52.956;4.772;2023-12-07T07:09:34;101960.28;;;7.59;100.00
55490;BME280;44029;52.956;4.772;2023-12-07T07:12:00;101965.53;;;7.53;100.00
55490;BME280;44029;52.956;4.772;2023-12-07T07:14:25;101960.75;;;7.69;100.00
55490;BME280;44029;52.956;4.772;2023-12-07T07:16:51;101960.13;;;7.73;100.00
55490;BME280;44029;52.956;4.772;2023-12-07T07:19:17;101962.16;;;7.51;100.00
55490;BME280;44029;52.956;4.772;2023-12-07T07:21:43;101958.72;;;7.36;100.00
55490;BME280;44029;52.956;4.772;2023-12-07T07:24:09;101958.97;;;7.96;100.00
55490;BME280;44029;52.956;4.772;2023-12-07T07:26:35;101967.38;;;7.94;100.00
55490;BME280;44029;52.956;4.772;2023-12-07T07:29:00;101956.84;;;7.85;100.00
55490;BME280;44029;52.956;4.772;2023-12-07T07:31:25;101968.63;;;6.81;100.00
55490;BME280;44029;52.956;4.772;2023-12-07T07:33:51;101976.75;;;7.02;100.00
55490;BME280;44029;52.956;4.772;2023-12-07T07:36:16;101974.78;;;7.59;100.00
55490;BME280;44029;52.956;4.772;2023-12-07T07:38:42;101973.97;;;7.65;100.00
55490;BME280;44029;52.956;4.772;2023-12-07T07:41:09;101976.38;;;7.47;100.00
55490;BME280;44029;52.956;4.772;2023-12-07T07:43:34;101970.50;;;7.85;100.00
55490;BME280;44029;52.956;4.772;2023-12-07T07:46:00;101961.72;;;7.96;100.00
55490;BME280;44029;52.956;4.772;2023-12-07T07:48:25;101967.81;;;8.05;100.00
55490;BME280;44029;52.956;4.772;2023-12-07T07:50:51;101962.25;;;8.46;100.00
55490;BME280;44029;52.956;4.772;2023-12-07T07:53:16;101974.06;;;7.85;100.00
55490;BME280;44029;52.956;4.772;2023-12-07T07:55:42;101970.69;;;7.83;100.00
55490;BME280;44029;52.956;4.772;2023-12-07T07:58:07;101970.56;;;7.57;100.00
55490;BME280;44029;52.956;4.772;2023-12-07T08:00:33;101973.56;;;7.68;100.00
55490;BME280;44029;52.956;4.772;2023-12-07T08:02:59;101976.00;;;7.50;100.00
55490;BME280;44029;52.956;4.772;2023-12-07T08:05:25;101974.34;;;7.55;100.00
55490;BME280;44029;52.956;4.772;2023-12-07T08:07:50;101977.06;;;7.55;100.00
55490;BME280;44029;52.956;4.772;2023-12-07T08:10:16;101972.91;;;7.60;100.00
55490;BME280;44029;52.956;4.772;2023-12-07T08:12:41;101965.59;;;7.73;100.00
55490;BME280;44029;52.956;4.772;2023-12-07T08:15:07;101957.44;;;7.80;100.00
55490;BME280;44029;52.956;4.772;2023-12-07T08:17:41;101957.44;;;7.80;100.00
55490;BME280;44029;52.956;4.772;2023-12-07T08:20:08;101959.59;;;7.91;100.00
55490;BME280;44029;52.956;4.772;2023-12-07T08:22:39;101961.88;;;7.40;100.00
55490;BME280;44029;52.956;4.772;2023-12-07T08:25:04;101957.31;;;7.47;100.00
55490;BME280;44029;52.956;4.772;2023-12-07T08:27:32;101964.97;;;7.30;100.00
55490;BME280;44029;52.956;4.772;2023-12-07T08:29:57;101964.25;;;7.14;100.00
55490;BME280;44029;52.956;4.772;2023-12-07T08:32:23;101970.03;;;7.33;100.00
55490;BME280;44029;52.956;4.772;2023-12-07T08:34:53;101972.75;;;7.33;100.00
55490;BME280;44029;52.956;4.772;2023-12-07T08:37:19;101975.72;;;7.80;100.00
55490;BME280;44029;52.956;4.772;2023-12-07T08:39:45;101964.00;;;7.99;100.00
55490;BME280;44029;52.956;4.772;2023-12-07T08:42:10;101975.00;;;8.26;100.00
55490;BME280;44029;52.956;4.772;2023-12-07T08:44:36;101965.91;;;7.99;100.00
55490;BME280;44029;52.956;4.772;2023-12-07T08:47:02;101969.81;;;7.83;100.00
55490;BME280;44029;52.956;4.772;2023-12-07T08:49:27;101972.34;;;7.84;100.00
55490;BME280;44029;52.956;4.772;2023-12-07T08:51:53;101962.56;;;8.03;100.00
55490;BME280;44029;52.956;4.772;2023-12-07T08:54:18;101949.19;;;7.60;100.00
55490;BME280;44029;52.956;4.772;2023-12-07T08:56:47;101954.38;;;8.03;100.00
55490;BME280;44029;52.956;4.772;2023-12-07T08:59:12;101951.41;;;7.91;100.00
55490;BME280;44029;52.956;4.772;2023-12-07T09:01:38;101951.44;;;7.98;100.00
55490;BME280;44029;52.956;4.772;2023-12-07T09:04:03;101960.91;;;7.54;100.00
55490;BME280;44029;52.956;4.772;2023-12-07T09:06:29;101944.13;;;7.50;100.00
55490;BME280;44029;52.956;4.772;2023-12-07T09:08:54;101946.69;;;7.65;100.00
55490;BME280;44029;52.956;4.772;2023-12-07T09:11:20;101946.44;;;7.53;100.00
55490;BME280;44029;52.956;4.772;2023-12-07T09:13:46;101936.91;;;7.36;100.00
55490;BME280;44029;52.956;4.772;2023-12-07T09:16:11;101931.34;;;7.58;100.00
55490;BME280;44029;52.956;4.772;2023-12-07T09:18:36;101931.88;;;6.98;100.00
55490;BME280;44029;52.956;4.772;2023-12-07T09:21:02;101928.72;;;7.36;100.00
55490;BME280;44029;52.956;4.772;2023-12-07T09:23:28;101924.72;;;6.97;100.00
55490;BME280;44029;52.956;4.772;2023-12-07T09:25:53;101924.63;;;7.60;100.00
55490;BME280;44029;52.956;4.772;2023-12-07T09:28:19;101923.47;;;7.34;100.00
55490;BME280;44029;52.956;4.772;2023-12-07T09:30:44;101916.81;;;7.44;100.00
55490;BME280;44029;52.956;4.772;2023-12-07T09:33:10;101924.97;;;7.99;100.00
55490;BME280;44029;52.956;4.772;2023-12-07T09:35:35;101923.34;;;8.24;100.00
55490;BME280;44029;52.956;4.772;2023-12-07T09:38:01;101924.19;;;8.25;100.00
55490;BME280;44029;52.956;4.772;2023-12-07T09:40:26;101926.69;;;8.20;100.00
55490;BME280;44029;52.956;4.772;2023-12-07T09:42:53;101935.78;;;7.65;100.00
55490;BME280;44029;52.956;4.772;2023-12-07T09:45:19;101937.59;;;8.06;100.00
55490;BME280;44029;52.956;4.772;2023-12-07T09:47:50;101940.53;;;8.11;100.00
55490;BME280;44029;52.956;4.772;2023-12-07T09:50:20;101944.19;;;8.45;100.00
55490;BME280;44029;52.956;4.772;2023-12-07T09:52:49;101941.13;;;7.93;100.00
55490;BME280;44029;52.956;4.772;2023-12-07T09:55:16;101938.34;;;7.80;100.00
55490;BME280;44029;52.956;4.772;2023-12-07T09:57:43;101938.75;;;7.77;100.00
55490;BME280;44029;52.956;4.772;2023-12-07T10:00:08;101945.13;;;8.04;100.00
55490;BME280;44029;52.956;4.772;2023-12-07T10:02:38;101930.84;;;7.96;100.00
55490;BME280;44029;52.956;4.772;2023-12-07T10:05:08;101934.63;;;8.01;100.00
55490;BME280;44029;52.956;4.772;2023-12-07T10:07:38;101939.06;;;8.09;100.00
55490;BME280;44029;52.956;4.772;2023-12-07T10:10:05;101935.13;;;8.31;100.00
55490;BME280;44029;52.956;4.772;2023-12-07T10:12:31;101929.47;;;8.60;100.00
55490;BME280;44029;52.956;4.772;2023-12-07T10:14:59;101930.03;;;8.08;100.00
55490;BME280;44029;52.956;4.772;2023-12-07T10:17:46;101920.22;;;8.67;100.00
55490;BME280;44029;52.956;4.772;2023-12-07T10:20:14;101910.44;;;7.78;100.00
55490;BME280;44029;52.956;4.772;2023-12-07T10:22:40;101914.03;;;7.30;100.00
55490;BME280;44029;52.956;4.772;2023-12-07T10:25:07;101902.56;;;7.48;100.00
55490;BME280;44029;52.956;4.772;2023-12-07T10:27:33;101901.06;;;7.39;100.00
55490;BME280;44029;52.956;4.772;2023-12-07T10:29:58;101905.59;;;7.67;100.00
55490;BME280;44029;52.956;4.772;2023-12-07T10:32:25;101904.38;;;7.34;100.00
55490;BME280;44029;52.956;4.772;2023-12-07T10:34:51;101901.53;;;7.08;100.00
55490;BME280;44029;52.956;4.772;2023-12-07T10:37:17;101902.09;;;7.38;100.00
55490;BME280;44029;52.956;4.772;2023-12-07T10:39:42;101894.44;;;7.13;100.00
55490;BME280;44029;52.956;4.772;2023-12-07T10:42:10;101896.78;;;7.16;100.00
55490;BME280;44029;52.956;4.772;2023-12-07T10:44:41;101897.16;;;7.13;100.00
55490;BME280;44029;52.956;4.772;2023-12-07T10:47:08;101899.38;;;6.96;100.00
55490;BME280;44029;52.956;4.772;2023-12-07T10:49:37;101886.91;;;7.15;100.00
55490;BME280;44029;52.956;4.772;2023-12-07T10:52:07;101889.94;;;6.92;100.00
55490;BME280;44029;52.956;4.772;2023-12-07T10:54:46;101887.75;;;6.53;100.00
55490;BME280;44029;52.956;4.772;2023-12-07T10:57:17;101879.84;;;6.30;100.00
55490;BME280;44029;52.956;4.772;2023-12-07T10:59:44;101880.94;;;6.14;100.00
55490;BME280;44029;52.956;4.772;2023-12-07T11:02:12;101872.41;;;6.45;100.00
55490;BME280;44029;52.956;4.772;2023-12-07T11:04:41;101874.69;;;6.70;100.00
55490;BME280;44029;52.956;4.772;2023-12-07T11:07:10;101874.75;;;6.48;100.00
55490;BME280;44029;52.956;4.772;2023-12-07T11:09:42;101873.56;;;6.08;100.00
55490;BME280;44029;52.956;4.772;2023-12-07T11:12:13;101868.13;;;6.08;100.00
55490;BME280;44029;52.956;4.772;2023-12-07T11:14:41;101864.81;;;6.12;100.00
55490;BME280;44029;52.956;4.772;2023-12-07T11:17:08;101858.91;;;6.30;100.00
55490;BME280;44029;52.956;4.772;2023-12-07T11:22:06;101858.06;;;6.58;100.00
55490;BME280;44029;52.956;4.772;2023-12-07T11:24:32;101847.66;;;6.12;100.00
55490;BME280;44029;52.956;4.772;2023-12-07T11:26:57;101851.38;;;6.61;100.00
55490;BME280;44029;52.956;4.772;2023-12-07T11:29:28;101841.66;;;7.21;100.00
55490;BME280;44029;52.956;4.772;2023-12-07T11:32:12;101846.72;;;7.31;100.00
55490;BME280;44029;52.956;4.772;2023-12-07T11:34:38;101830.03;;;6.64;100.00
55490;BME280;44029;52.956;4.772;2023-12-07T11:37:04;101828.41;;;6.42;100.00
55490;BME280;44029;52.956;4.772;2023-12-07T11:39:35;101827.78;;;6.39;100.00
55490;BME280;44029;52.956;4.772;2023-12-07T11:42:15;101826.22;;;6.87;100.00
55490;BME280;44029;52.956;4.772;2023-12-07T11:44:42;101818.88;;;6.24;100.00
55490;BME280;44029;52.956;4.772;2023-12-07T11:47:10;101815.38;;;6.09;100.00
55490;BME280;44029;52.956;4.772;2023-12-07T11:49:41;101809.94;;;5.66;100.00
55490;BME280;44029;52.956;4.772;2023-12-07T11:54:39;101806.97;;;5.60;100.00
55490;BME280;44029;52.956;4.772;2023-12-07T11:57:05;101810.84;;;5.73;100.00
55490;BME280;44029;52.956;4.772;2023-12-07T11:59:30;101816.41;;;6.29;100.00
55490;BME280;44029;52.956;4.772;2023-12-07T12:01:59;101810.63;;;6.11;100.00
55490;BME280;44029;52.956;4.772;2023-12-07T12:04:24;101806.00;;;5.47;100.00
55490;BME280;44029;52.956;4.772;2023-12-07T12:06:49;101810.81;;;5.30;100.00
55490;BME280;44029;52.956;4.772;2023-12-07T12:09:15;101805.22;;;5.53;100.00
55490;BME280;44029;52.956;4.772;2023-12-07T12:11:45;101796.72;;;5.62;100.00
55490;BME280;44029;52.956;4.772;2023-12-07T12:14:12;101793.59;;;5.22;100.00
55490;BME280;44029;52.956;4.772;2023-12-07T12:16:38;101786.13;;;5.46;100.00
55490;BME280;44029;52.956;4.772;2023-12-07T12:19:04;101781.66;;;5.81;100.00
55490;BME280;44029;52.956;4.772;2023-12-07T12:21:33;101757.97;;;6.25;100.00
55490;BME280;44029;52.956;4.772;2023-12-07T12:23:59;101757.56;;;5.78;100.00
55490;BME280;44029;52.956;4.772;2023-12-07T12:26:24;101760.88;;;5.95;100.00
55490;BME280;44029;52.956;4.772;2023-12-07T12:28:49;101763.63;;;5.52;100.00
55490;BME280;44029;52.956;4.772;2023-12-07T12:31:15;101758.13;;;6.17;100.00
55490;BME280;44029;52.956;4.772;2023-12-07T12:33:41;101757.16;;;6.03;100.00
55490;BME280;44029;52.956;4.772;2023-12-07T12:36:07;101746.63;;;5.93;100.00
55490;BME280;44029;52.956;4.772;2023-12-07T12:38:33;101733.56;;;5.17;100.00
55490;BME280;44029;52.956;4.772;2023-12-07T12:40:58;101726.25;;;5.18;100.00
55490;BME280;44029;52.956;4.772;2023-12-07T12:43:24;101727.75;;;5.42;100.00
55490;BME280;44029;52.956;4.772;2023-12-07T12:45:49;101724.84;;;5.65;100.00
55490;BME280;44029;52.956;4.772;2023-12-07T12:48:15;101719.41;;;5.65;100.00
55490;BME280;44029;52.956;4.772;2023-12-07T12:50:40;101715.97;;;5.78;100.00